Cancun, Mexico

1:26 PM EST on July 28, 2016 (GMT -0500)
Paseo del mar Residencial Campestre Cancun | | Change Station

Elev 26 ft 21.10 °N, 86.85 °W | Updated 9 seconds ago

Mostly Cloudy
Mostly Cloudy
89.1 °F
Feels Like 105 °F
N
3.6
Wind Variable Wind from East
Gusts 9.8 mph

Today
High -- | Low -- °F
--% Chance of Precip.
Yesterday
High -- | Low -- °F
Precip. -- in
Pressure 29.96 in
Visibility 8.0 miles
Clouds Mostly Cloudy 1500 ft
Heat Index 105 °F
Dew Point 79 °F
Humidity 72%
Rainfall 0.33 in
Snow Depth Not available.
6:20 AM 7:27 PM
Waning Crescent, 30% visible
METAR MMCZ 281741Z 06010KT 8SM BKN015TCU 29/24 A2998 RMK SLP144 57020 910 8/200 CI
Pressure 29.96 in
Visibility 8.0 miles
Clouds Mostly Cloudy 1500 ft
Heat Index 105 °F
Dew Point 79 °F
Humidity 72%
Rainfall 0.33 in
Snow Depth Not available.
6:20 AM 7:27 PM
Waning Crescent, 30% visible
METAR MMCZ 281741Z 06010KT 8SM BKN015TCU 29/24 A2998 RMK SLP144 57020 910 8/200 CI

10-Day Weather Forecast

No radar image for this location.
×

Almanac

Astronomy

Jul. 28, 2016 Rise Set
Actual Time
Civil Twilight
Nautical Twilight
Astronomical Twilight
Moon
Length of Visible Light
Length of Day
Tomorrow will be .
, % of the Moon is Illuminated

Today's Extremes

Country Highs Country Lows

Community

WunderPhotos

Upload Photos

1,928,174 photos uploaded!

WunderBlog® & News

Nearby

Air Quality

  Air Quality AQ Index Pollutant
Not available.

Snow Depth

Station Depth Elevation

Earthquake Activity

City Distance Mag. Time & Date
Minimum magnitude displayed is 2.5.

Coastal Water Temperatures

Place Temperature

Stations

Nearby Weather Stations

Station Location Temp. Windchill Dew Point Humidity Wind Precip. Elev Updated Type